• Join FlightAware (Why Join?)
  • Login
  • US Flag 
08:50PM EDT


 

Airport Tracker/Info


-or-


 

Live Flight TrackerFlight Track Log ✈ XOJ548 ✈ 12-May-2013 ✈ KPDK - KOAK

Flight Track Log - Related Links

Times and Time Zones

All times are in EDT time to prevent confusion due to time zone crossing. See the XOJ548 flight status page for this flight to view local times or setup timezone preferences in your user account.

Time Position Orientation Groundspeed Altitude Reporting Facility
EDT Latitude Longitude Course Direction KTS MPH feet Rate Location/Type
08:54PM 33.9333 -84.2667 253° West 211 243 4,200  Level Atlanta TRACON
08:55PM 33.9833 -84.3167 320° Northwest 253 291 7,400 3,480 Climbing Atlanta TRACON
08:56PM 34.0000 -84.4000 284° West 266 306 10,900 2,700 Climbing Atlanta TRACON
08:56PM 34.0067 -84.4247 288° West 278 320 11,000 1,560 Climbing Atlanta Center
08:57PM 33.9833 -84.5197 254° West 322 371 13,000 1,800 Climbing Atlanta Center
08:58PM 33.9142 -84.5894 220° Southwest 328 377 14,700 2,100 Climbing Atlanta Center
08:59PM 33.7180 -85.1112 253° West  Level FlightAware Approximate
08:59PM 33.8803 -84.6569 239° Southwest 319 367 17,300  Level Atlanta Center
09:00PM 33.8694 -84.7669 263° West 299 344 20,500 3,540 Climbing Atlanta Center
09:01PM 33.8622 -84.8869 266° West 312 359 24,400 3,180 Climbing Atlanta Center
09:02PM 33.8533 -84.9844 264° West 312 359 26,900 2,280 Climbing Atlanta Center
09:03PM 33.8464 -85.0744 265° West 312 359 29,000 2,280 Climbing Atlanta Center
09:04PM 33.8683 -85.1747 285° West 307 353 31,500 2,100 Climbing Atlanta Center
09:05PM 33.8925 -85.2675 287° West 307 353 33,300 1,500 Climbing Atlanta Center
09:06PM 33.9186 -85.3656 288° West 302 348 34,500 1,200 Climbing Atlanta Center
09:07PM 33.9467 -85.4711 288° West 318 366 35,700 1,200 Climbing Atlanta Center
09:08PM 33.9725 -85.5717 287° West 323 372 36,900 1,200 Climbing Atlanta Center
09:09PM 34.0025 -85.6850 288° West 328 377 38,100 1,080 Climbing Atlanta Center
09:10PM 34.0281 -85.7908 286° West 328 377 39,100 840 Climbing Atlanta Center
09:11PM 34.0517 -85.8867 287° West 321 369 39,800 600 Climbing Atlanta Center
09:12PM 34.0794 -85.9925 288° West 326 375 40,400 540 Climbing Atlanta Center
09:13PM 34.1067 -86.1011 287° West 326 375 40,900 420 Climbing Atlanta Center
09:14PM 34.1342 -86.2122 287° West 338 389 41,300 300 Climbing Atlanta Center
09:15PM 34.1633 -86.3233 288° West 343 395 41,600 300 Climbing Atlanta Center
09:16PM 34.1925 -86.4372 287° West 348 400 41,900 300 Climbing Atlanta Center
09:17PM 34.2194 -86.5533 286° West 348 400 42,200 300 Climbing Atlanta Center
09:18PM 34.2503 -86.6700 288° West 353 406 42,500 300 Climbing Atlanta Center
09:19PM 34.2828 -86.8103 286° West 387 445 42,900 180 Climbing Memphis Center
09:20PM 34.3089 -86.9222 286° West 387 445 43,000  Climbing Memphis Center
09:21PM 34.3392 -87.0394 287° West 377 434 43,000  Level Memphis Center
09:22PM 34.3675 -87.1642 285° West 377 434 43,000  Level Memphis Center
09:23PM 34.3997 -87.2836 288° West 371 427 43,000  Level Memphis Center
09:24PM 34.4297 -87.4086 286° West 377 434 43,000  Level Memphis Center
09:25PM 34.4597 -87.5358 286° West 384 442 43,000  Level Memphis Center
09:26PM 34.4942 -87.6733 287° West 384 442 43,000  Level Memphis Center
09:27PM 34.5239 -87.7986 286° West 384 442 43,000  Level Memphis Center
09:28PM 34.5536 -87.9261 286° West 395 455 43,000  Level Memphis Center
09:29PM 34.5811 -88.0514 285° West 395 455 43,000  Level Memphis Center
09:30PM 34.6106 -88.1744 286° West 400 460 43,000  Level Memphis Center
09:31PM 34.6378 -88.3025 285° West 400 460 43,000  Level Memphis Center
09:32PM 34.6689 -88.4303 287° West 400 460 43,000  Level Memphis Center
09:33PM 34.7000 -88.5636 286° West 383 441 43,000  Level Memphis Center
09:34PM 34.7269 -88.6894 285° West 383 441 43,000  Level Memphis Center
09:35PM 34.7533 -88.8025 286° West 388 447 43,000  Level Memphis Center
09:36PM 34.7842 -88.9336 286° West 393 452 43,000  Level Memphis Center
09:37PM 34.8128 -89.0569 286° West 393 452 43,000  Level Memphis Center
09:38PM 34.8392 -89.1856 284° West 393 452 43,000  Level Memphis Center
09:39PM 34.8694 -89.3067 287° West 393 452 43,000  Level Memphis Center
09:40PM 34.8975 -89.4356 285° West 393 452 43,000  Level Memphis Center
09:41PM 34.9256 -89.5567 286° West 387 445 43,000  Level Memphis Center
09:42PM 34.9492 -89.6983 282° West 387 445 43,000  Level Memphis Center
09:43PM 34.9853 -89.8172 290° West 399 459 43,000  Level Memphis Center
09:44PM 35.0108 -89.9464 284° West 405 466 43,000  Level Memphis Center
09:45PM 35.0467 -90.0678 290° West 392 451 43,000  Level Memphis Center
09:46PM 35.0844 -90.1922 290° West 387 445 43,000  Level Memphis Center
09:47PM 35.1222 -90.3139 291° West 387 445 43,000  Level Memphis Center
09:48PM 35.1639 -90.4486 291° West 392 451 43,000  Level Memphis Center
09:49PM 35.2053 -90.5731 292° West 392 451 43,000  Level Memphis Center
09:50PM 35.2406 -90.6978 289° West 392 451 43,000  Level Memphis Center
09:51PM 35.2819 -90.8250 292° West 392 451 43,000  Level Memphis Center
09:52PM 35.3189 -90.9475 290° West 392 451 43,000  Level Memphis Center
09:53PM 35.3578 -91.0700 291° West 392 451 43,000  Level Memphis Center
09:54PM 35.3967 -91.1900 292° West 392 451 43,000  Level Memphis Center
09:55PM 35.4333 -91.3228 289° West 397 457 43,000  Level Memphis Center
09:56PM 35.4700 -91.4431 291° West 397 457 43,000  Level Memphis Center
09:57PM 35.5106 -91.5736 291° West 392 451 43,000  Level Memphis Center
09:58PM 35.5489 -91.6992 291° West 397 457 43,000  Level Memphis Center
09:59PM 35.5869 -91.8275 290° West 397 457 43,000  Level Memphis Center
10:00PM 35.6250 -91.9533 290° West 397 457 43,000  Level Memphis Center
10:01PM 35.6631 -92.0819 290° West 397 457 43,000  Level Memphis Center
10:02PM 35.6986 -92.2078 289° West 397 457 43,000  Level Memphis Center
10:03PM 35.7386 -92.3342 291° West 392 451 43,000  Level Memphis Center
10:04PM 35.7739 -92.4628 289° West 392 451 43,000  Level Memphis Center
10:05PM 35.8114 -92.5892 290° West 392 451 43,000  Level Memphis Center
10:06PM 35.8486 -92.7156 290° West 392 451 43,000  Level Memphis Center
10:07PM 35.8858 -92.8447 290° West 392 451 43,000  Level Memphis Center
10:08PM 35.9228 -92.9742 289° West 392 451 43,000  Level Memphis Center
10:09PM 35.9578 -93.0931 290° West 402 463 43,000  Level Memphis Center
10:10PM 35.9944 -93.2200 290° West 402 463 43,000 180 Level Memphis Center
10:11PM 36.0225 -93.3544 285° West 407 468 43,400 420 Climbing Memphis Center
10:12PM 36.0464 -93.4889 282° West 402 463 43,900 420 Climbing Memphis Center
10:13PM 36.0722 -93.6208 284° West 396 456 44,300 360 Climbing Memphis Center
10:14PM 36.0981 -93.7478 284° West 391 450 44,700 300 Climbing Memphis Center
10:15PM 36.1194 -93.8769 282° West 391 450 45,000 120 Climbing Memphis Center
10:16PM 36.1450 -94.0067 284° West 391 450 45,000  Level Memphis Center
10:17PM 36.1678 -94.1492 281° West 391 450 45,000  Level Memphis Center
10:19PM 36.2153 -94.3897 284° West 394 453 45,000  Level Kansas City Center
10:20PM 36.2381 -94.5236 282° West 397 457 45,000  Level Kansas City Center
10:21PM 36.2619 -94.6589 282° West 400 460 45,000  Level Kansas City Center
10:22PM 36.2861 -94.7953 282° West 403 464 45,000  Level Kansas City Center
10:23PM 36.3103 -94.9325 282° West 406 467 45,000  Level Kansas City Center
10:24PM 36.3339 -95.0711 282° West 408 470 45,000  Level Kansas City Center
10:25PM 36.3597 -95.2233 282° West 405 466 45,000  Level Kansas City Center
10:26PM 36.3836 -95.3617 282° West 409 471 45,000  Level Kansas City Center
10:27PM 36.4069 -95.5000 282° West 410 472 45,000  Level Kansas City Center
10:28PM 36.4306 -95.6400 282° West 413 475 45,000  Level Kansas City Center
10:29PM 36.4553 -95.7819 282° West 415 478 45,000  Level Kansas City Center
10:30PM 36.4778 -95.9231 281° West 417 480 45,000  Level Kansas City Center
10:31PM 36.5053 -96.0903 282° West 414 476 45,000  Level Kansas City Center
10:32PM 36.5292 -96.2300 282° West 413 475 45,000  Level Kansas City Center
10:33PM 36.5517 -96.3706 281° West 413 475 45,000  Level Kansas City Center
10:34PM 36.5758 -96.5114 282° West 415 478 45,000  Level Kansas City Center
10:35PM 36.5964 -96.6525 280° West 415 478 45,000  Level Kansas City Center
10:36PM 36.6206 -96.7925 282° West 414 476 45,000  Level Kansas City Center
10:37PM 36.6408 -96.9333 280° West 413 475 45,000  Level Kansas City Center
10:38PM 36.6631 -97.0747 281° West 414 476 45,000  Level Kansas City Center
10:39PM 36.6844 -97.2083 281° West 417 480 45,000  Level Kansas City Center
10:40PM 36.7097 -97.3778 281° West 417 480 45,000  Level Kansas City Center
10:41PM 36.7311 -97.5200 281° West 418 481 45,000  Level Kansas City Center
10:42PM 36.7519 -97.6656 280° West 421 484 45,000  Level Kansas City Center
10:43PM 36.7706 -97.7900 281° West 418 481 45,000  Level Kansas City Center
10:44PM 36.7925 -97.9336 281° West 418 481 45,000  Level Kansas City Center
10:45PM 36.8169 -98.1053 280° West 420 483 45,000  Level Kansas City Center
10:46PM 36.8356 -98.2358 280° West 419 482 45,000  Level Kansas City Center
10:47PM 36.8567 -98.3808 280° West 421 484 45,000  Level Kansas City Center
10:49PM 36.8781 -98.5328 280° West 418 481 45,000  Level Kansas City Center
10:50PM 36.8992 -98.6792 280° West 422 486 45,000  Level Kansas City Center
10:51PM 36.9200 -98.8247 280° West 425 489 45,000  Level Kansas City Center
10:52PM 36.9386 -98.9658 279° West 422 486 45,000  Level Kansas City Center
10:53PM 36.9581 -99.1092 280° West 419 482 45,000  Level Kansas City Center
10:54PM 36.9781 -99.2553 280° West 425 489 45,000  Level Kansas City Center
10:55PM 36.9975 -99.4000 280° West 425 489 45,000  Level Kansas City Center
10:56PM 37.0175 -99.5444 280° West 423 487 45,000  Level Kansas City Center
10:57PM 37.0369 -99.6978 279° West 427 491 45,000  Level Kansas City Center
10:58PM 37.0597 -99.8617 280° West 428 493 45,000  Level Kansas City Center
10:59PM 37.0769 -100.0044 279° West 431 496 45,000  Level Kansas City Center
11:00PM 37.0983 -100.1708 279° West 433 498 45,000  Level Kansas City Center
11:01PM 37.1167 -100.3139 279° West 433 498 45,000  Level Kansas City Center
11:02PM 37.1342 -100.4567 279° West 432 497 45,000  Level Kansas City Center
11:03PM 37.1561 -100.6261 279° West 438 504 45,000  Level Kansas City Center
11:04PM 37.1733 -100.7708 279° West 437 503 45,000  Level Kansas City Center
11:05PM 37.1917 -100.9169 279° West 439 505 45,000  Level Kansas City Center
11:06PM 37.2114 -101.0875 278° West 440 506 45,000  Level Kansas City Center
11:07PM 37.2292 -101.2350 279° West 443 510 45,000  Level Kansas City Center
11:08PM 37.2469 -101.3822 279° West 444 511 45,000  Level Kansas City Center
11:09PM 37.2664 -101.5531 278° West 442 509 45,000  Level Kansas City Center
11:10PM 37.2836 -101.7000 278° West 443 510 45,000  Level Kansas City Center
11:11PM 37.2997 -101.8472 278° West 444 511 45,000  Level Kansas City Center
11:12PM 37.3192 -102.0178 278° West 443 510 45,000  Level Kansas City Center
11:13PM 37.3347 -102.1625 278° West 440 506 45,000  Level Kansas City Center
11:14PM 37.3481 -102.2858 278° West 443 510 45,000  Level Albuquerque Center
11:15PM 37.3631 -102.4322 277° West 443 510 45,000  Level Albuquerque Center
11:16PM 37.3819 -102.6033 278° West 443 510 45,000  Level Albuquerque Center
11:17PM 37.3975 -102.7494 278° West 442 509 45,000  Level Albuquerque Center
11:18PM 37.4158 -102.9211 278° West 443 510 45,000  Level Albuquerque Center
11:19PM 37.4311 -103.0672 278° West 442 509 45,000  Level Albuquerque Center
11:20PM 37.4461 -103.2142 277° West 442 509 45,000  Level Albuquerque Center
11:21PM 37.4636 -103.3856 277° West 442 509 45,000  Level Albuquerque Center
11:22PM 37.4778 -103.5331 277° West 443 510 45,000  Level Albuquerque Center
11:23PM 37.4919 -103.6806 277° West 443 510 45,000  Level Albuquerque Center
11:24PM 37.5072 -103.8394 277° West 445 512 45,000  Level Albuquerque Center
11:25PM 37.5211 -103.9964 276° West 448 516 45,000  Level Albuquerque Center
11:26PM 37.5386 -104.1894 277° West 450 518 45,000  Level Denver Center
11:27PM 37.5556 -104.3622 277° West 446 513 45,000  Level Denver Center
11:28PM 37.5692 -104.5103 277° West 445 512 45,000  Level Denver Center
11:29PM 37.5844 -104.6836 276° West 446 513 45,000  Level Denver Center
11:30PM 37.5981 -104.8331 277° West 447 514 45,000  Level Denver Center
11:31PM 37.6103 -104.9839 276° West 450 518 45,000  Level Denver Center
11:32PM 37.6256 -105.1592 276° West 451 519 45,000  Level Denver Center
11:33PM 37.6381 -105.3092 276° West 449 517 45,000  Level Denver Center
11:34PM 37.6497 -105.4597 276° West 451 519 45,000  Level Denver Center
11:35PM 37.6644 -105.6361 276° West 451 519 45,000  Level Denver Center
11:36PM 37.6767 -105.7869 276° West 453 521 45,000  Level Denver Center
11:37PM 37.6881 -105.9389 275° West 454 522 45,000  Level Denver Center
11:38PM 37.7019 -106.1147 276° West 452 520 45,000  Level Denver Center
11:39PM 37.7136 -106.2794 275° West 452 520 45,000  Level Denver Center
11:41PM 37.7247 -106.4308 275° West 452 520 45,000  Level Denver Center
11:42PM 37.7386 -106.6317 275° West 450 518 45,000  Level Denver Center
11:43PM 37.7503 -106.7839 276° West 454 522 45,000  Level Denver Center
11:44PM 37.7611 -106.9358 275° West 454 522 45,000  Level Denver Center
11:45PM 37.7722 -107.1144 275° West 457 526 45,000  Level Denver Center
11:46PM 37.7831 -107.2700 275° West 462 532 45,000 -360 Level Denver Center
11:47PM 37.7919 -107.4244 274° West 462 532 44,300 -780 Descending Denver Center
11:48PM 37.8031 -107.6072 274° West 467 537 43,500 -660 Descending Denver Center
11:49PM 37.8133 -107.7681 275° West 477 549 43,000 -300 Descending Denver Center
11:50PM 37.8264 -107.9589 275° West 485 558 43,000  Level Denver Center
11:51PM 37.8356 -108.1222 274° West 487 560 43,000  Level Denver Center
11:52PM 37.8456 -108.2833 275° West 484 557 43,000  Level Denver Center
11:53PM 37.8556 -108.4764 274° West 491 565 43,000  Level Denver Center
11:54PM 37.8644 -108.6381 274° West 486 559 43,000  Level Denver Center
11:55PM 37.8717 -108.7739 274° West 486 559 43,000  Level Denver Center
11:56PM 37.8836 -108.9886 274° West 482 555 43,000  Level Denver Center
11:57PM 37.8914 -109.1517 274° West 487 560 43,000  Level Denver Center
11:58PM 37.9008 -109.3414 274° West 486 559 43,000  Level Denver Center
11:59PM 37.9089 -109.5047 274° West 486 559 43,000  Level Denver Center
12:00AM 37.9156 -109.6675 273° West 486 559 43,000  Level Denver Center
12:01AM 37.9250 -109.8583 274° West 488 562 43,000  Level Denver Center
12:02AM 37.9303 -109.9939 273° West 485 558 43,000  Level Denver Center
12:03AM 37.9378 -110.1864 273° West 488 562 43,000  Level Denver Center
12:04AM 37.9453 -110.3761 273° West 484 557 43,000  Level Denver Center
12:05AM 37.9525 -110.5394 273° West 486 559 43,000  Level Denver Center
12:06AM 37.9589 -110.7050 273° West 482 555 43,000  Level Denver Center
12:07AM 37.9644 -110.8733 272° West 481 554 43,000  Level Denver Center
12:08AM 37.9697 -111.0419 272° West 483 556 43,000  Level Denver Center
12:09AM 37.9753 -111.2097 272° West 478 550 43,000  Level Denver Center
12:10AM 37.9817 -111.4106 272° West 477 549 43,000  Level Denver Center
12:11AM 37.9878 -111.5786 273° West 478 550 43,000  Level Denver Center
12:12AM 37.9925 -111.7461 272° West 478 550 43,000  Level Denver Center
12:13AM 37.9978 -111.9139 272° West 478 550 43,000  Level Denver Center
12:14AM 38.0022 -112.0806 272° West 476 548 43,000  Level Salt Lake Center
12:15AM 38.0058 -112.2494 272° West 480 552 43,000  Level Salt Lake Center
12:16AM 38.0097 -112.4167 272° West 479 551 43,000  Level Salt Lake Center
12:17AM 38.0144 -112.6169 272° West 478 550 43,000  Level Salt Lake Center
12:18AM 38.0167 -112.7833 271° West 478 550 43,000  Level Salt Lake Center
12:19AM 38.0200 -112.9497 272° West 478 550 43,000  Level Salt Lake Center
12:20AM 38.0219 -113.1147 271° West 474 545 43,000  Level Salt Lake Center
12:21AM 38.0242 -113.2806 271° West 476 548 43,000  Level Salt Lake Center
12:22AM 38.0258 -113.4469 271° West 476 548 43,000  Level Salt Lake Center
12:23AM 38.0283 -113.6125 271° West 474 545 43,000  Level Salt Lake Center
12:24AM 38.0300 -113.7786 271° West 473 544 43,000  Level Salt Lake Center
12:25AM 38.0325 -113.9797 271° West 478 550 43,000  Level Salt Lake Center
12:26AM 38.0342 -114.1458 271° West 474 545 43,000  Level Salt Lake Center
12:27AM 38.0336 -114.3094 270° West 468 539 43,000  Level Salt Lake Center
12:28AM 38.0358 -114.4728 271° West 464 534 43,000  Level Salt Lake Center
12:30AM 38.0361 -114.6361 270° West 465 535 43,000  Level Salt Lake Center
12:31AM 38.0367 -114.7986 270° West 463 533 43,000  Level Salt Lake Center
12:32AM 38.0369 -114.9803 270° West 464 534 43,000  Level Salt Lake Center
12:33AM 38.0356 -115.1431 269° West 463 533 43,000  Level Salt Lake Center
12:34AM 38.0361 -115.3069 270° West 465 535 43,000  Level Salt Lake Center
12:35AM 38.0347 -115.4708 269° West 465 535 43,000  Level Salt Lake Center
12:36AM 38.0336 -115.6347 270° West 464 534 43,000  Level Salt Lake Center
12:37AM 38.0328 -115.7981 270° West 465 535 43,000  Level Salt Lake Center
12:38AM 38.0314 -115.9631 269° West 467 537 43,000  Level Salt Lake Center
12:39AM 38.0306 -116.1264 270° West 465 535 43,000  Level Salt Lake Center
12:40AM 38.0286 -116.2900 269° West 465 535 43,000  Level Salt Lake Center
12:40AM 38.0275 -116.3875 269° West 462 532 43,000  Level Oakland Center
12:41AM 38.0264 -116.4525 269° West 461 531 43,000  Level Salt Lake Center
12:42AM 38.0247 -116.6147 269° West 459 528 43,000  Level Salt Lake Center
12:43AM 38.0222 -116.7750 269° West 456 525 43,000  Level Salt Lake Center
12:44AM 38.0197 -116.9375 269° West 458 527 43,000  Level Salt Lake Center
12:44AM 38.0178 -117.0344 269° West 456 525 43,000  Level Oakland Center
12:45AM 38.0153 -117.1997 269° West 457 526 43,000  Level Oakland Center
12:46AM 38.0111 -117.3639 268° West 454 522 43,000  Level Oakland Center
12:47AM 38.0083 -117.5247 269° West 453 521 43,000  Level Oakland Center
12:48AM 38.0050 -117.6833 269° West 449 517 43,000  Level Oakland Center
12:49AM 38.0008 -117.8422 268° West 450 518 43,000  Level Oakland Center
12:50AM 37.9942 -117.9992 267° West 447 514 43,000  Level Oakland Center
12:51AM 37.9878 -118.1567 267° West 447 514 43,000  Level Oakland Center
12:52AM 37.9822 -118.3128 267° West 446 513 43,000  Level Oakland Center
12:53AM 37.9761 -118.4703 267° West 448 516 43,000  Level Oakland Center
12:54AM 37.9689 -118.6283 267° West 448 516 43,000  Level Oakland Center
12:55AM 37.9619 -118.7847 267° West 446 513 43,000  Level Oakland Center
12:56AM 37.9564 -118.9417 267° West 447 514 43,000  Level Oakland Center
12:57AM 37.9481 -119.0986 266° West 447 514 43,000  Level Oakland Center
12:58AM 37.9403 -119.2819 267° West 446 513 43,000  Level Oakland Center
12:59AM 37.9333 -119.4378 267° West 444 511 43,000 -840 Level Oakland Center
01:01AM 37.9247 -119.5936 266° West 442 509 41,300 -2,100 Descending Oakland Center
01:02AM 37.9167 -119.7489 266° West 443 510 38,800 -2,460 Descending Oakland Center
01:03AM 37.9092 -119.9044 267° West 444 511 36,300 -2,580 Descending Oakland Center
01:04AM 37.9008 -120.0681 266° West 461 531 33,600 -2,640 Descending Oakland Center
01:05AM 37.8903 -120.2319 265° West 467 537 31,000 -2,580 Descending Oakland Center
01:06AM 37.8819 -120.3944 266° West 463 533 28,400 -2,580 Descending Oakland Center
01:07AM 37.8728 -120.5547 266° West 459 528 25,800 -2,460 Descending Oakland Center
01:08AM 37.8633 -120.7092 266° West 443 510 23,400 -2,460 Descending Oakland Center
01:09AM 37.8500 -120.9000 265° West 420 483 20,600 -2,280 Descending Northern Cal TRACON
01:10AM 37.8500 -121.0333 270° West 404 465 18,600 -2,160 Descending Northern Cal TRACON
01:11AM 37.8333 -121.1833 262° West 430 495 16,100 -2,100 Descending Northern Cal TRACON
01:12AM 37.7833 -121.3000 242° Southwest 378 435 14,400 -1,920 Descending Northern Cal TRACON
01:13AM 37.7500 -121.4167 250° West 363 418 12,500 -1,740 Descending Northern Cal TRACON
01:15AM 37.6792 -121.6078 245° Southwest 305 351 9,300 -1,680 Descending Oakland Center
01:16AM 37.6500 -121.7000 248° West 281 323 7,800 -1,440 Descending Northern Cal TRACON
01:17AM 37.6167 -121.7833 243° Southwest 271 312 6,600 -1,200 Descending Northern Cal TRACON
01:18AM 37.6167 -121.8833 270° West 264 304 5,400 -1,320 Descending Northern Cal TRACON
01:19AM 37.6500 -121.9667 297° West 261 300 4,000 -1,320 Descending Northern Cal TRACON
01:20AM 37.6667 -122.0333 288° West 227 261 2,800 -1,080 Descending Northern Cal TRACON
01:21AM 37.6919 -122.1044 294° West 222 255 1,800 -840 Descending Oakland Center
01:22AM 37.7089 -122.1558 293° West 188 216 1,000 -840 Descending Oakland Center
01:23AM 37.7225 -122.1983 292° West 157 181 200 -840 Descending Oakland Center
01:25AM 37.7167 -122.2167 270° West  Level FlightAware Approximate